CheckWX is a tool to help pilots better visualize weather data.  It is not intended as a substitute for an official pre-flight weather briefing.

17:50:08 UTC

KMTN METAR
Martin State Airport
Baltimore, Maryland, USA
Current

56 mins ago

KMTN 131654Z 30010G20KT 10SM FEW060 02/M08 A3043
Observed
Nov-13 @ 16:54 UTC
Wind
  • 300° at 10 KTS
  • Gusting to 20 KTS
Visibility
10 SM
Flight Rules
VFR
Cloud Levels
  • Few at 6,000' AGL
Temperature
C / 36°F
Dewpoint
-8°C / 18°F
Humidity
48%
Altimeter
30.43" Hg
Pressure
1030.52 hPa
Previous

2 hours ago

KMTN 131555Z 27012G19KT 10SM SCT060 01/M08 A3044
Observed
Nov-13 @ 15:55 UTC
Wind
  • 270° at 12 KTS
  • Gusting to 19 KTS
Visibility
10 SM
Flight Rules
VFR
Cloud Levels
  • Scattered at 6,000' AGL
Temperature
C / 34°F
Dewpoint
-8°C / 18°F
Humidity
51%
Altimeter
30.44" Hg
Pressure
1030.82 hPa
Previous

3 hours ago

KMTN 131455Z 28012G20KT 10SM FEW060 00/M09 A3044
Observed
Nov-13 @ 14:55 UTC
Wind
  • 280° at 12 KTS
  • Gusting to 20 KTS
Visibility
10 SM
Flight Rules
VFR
Cloud Levels
  • Few at 6,000' AGL
Temperature
C / 32°F
Dewpoint
-9°C / 16°F
Humidity
51%
Altimeter
30.44" Hg
Pressure
1030.82 hPa